Time;durP1;ratioP1;P1;durP2;ratioP2;P2;SDS_P1;SDS_P2;PMS_P1;PMS_P2;Temp;Humidity;BMP_temperature;BMP_pressure;BME280_temperature;BME280_humidity;BME280_pressure;Samples;Min_cycle;Max_cycle;Signal;HPM_P1;HPM_P2
2022/10/01 00:01:56;;;;;;;;;;;;;;;20.78;47.95;100274.41;5117825;27;20413;-38
2022/10/01 00:04:22;;;;;;;;;;;;;;;20.78;47.84;100272.47;5135223;27;19930;-38
2022/10/01 00:06:47;;;;;;;;;;;;;;;20.78;47.73;100269.69;5137804;27;19931;-38
2022/10/01 00:09:13;;;;;;;;;;;;;;;20.77;47.79;100270.00;5138909;27;19924;-38
2022/10/01 00:11:38;;;;;;;;;;;;;;;20.77;47.77;100270.00;5135495;27;20282;-38
2022/10/01 00:14:04;;;;;;;;;;;;;;;20.78;47.72;100269.69;5132650;27;20015;-38
2022/10/01 00:16:30;;;;;;;;;;;;;;;20.78;47.76;100263.34;5137045;27;20483;-38
2022/10/01 00:18:56;;;;;;;;;;;;;;;20.77;47.76;100259.75;5135443;27;19931;-38
2022/10/01 00:21:23;;;;;;;;;;;;;;;20.78;48.00;100260.56;5137660;27;19985;-38
2022/10/01 00:23:57;;;;;;;;;;;;;;;20.77;47.81;100251.47;5134371;27;19930;-38
2022/10/01 00:26:26;;;;;;;;;;;;;;;20.77;47.77;100245.09;5139552;27;20727;-38
2022/10/01 00:28:52;;;;;;;;;;;;;;;20.78;47.83;100246.75;5144037;27;20029;-38
2022/10/01 00:31:18;;;;;;;;;;;;;;;20.77;47.70;100236.81;5119152;28;20322;-38
2022/10/01 00:33:43;;;;;;;;;;;;;;;20.76;47.79;100222.13;5114652;28;20381;-38
2022/10/01 00:36:09;;;;;;;;;;;;;;;20.78;47.62;100219.06;5136915;27;19923;-38
2022/10/01 00:38:35;;;;;;;;;;;;;;;20.77;47.94;100211.91;5135479;27;19931;-38
2022/10/01 00:41:01;;;;;;;;;;;;;;;20.76;47.71;100199.97;5136999;27;19923;-38
2022/10/01 00:43:28;;;;;;;;;;;;;;;20.76;47.82;100183.38;5133279;27;20672;-38
2022/10/01 00:45:54;;;;;;;;;;;;;;;20.76;47.67;100172.31;5131809;27;20386;-38
2022/10/01 00:48:21;;;;;;;;;;;;;;;20.75;47.81;100172.63;5131354;27;19946;-38
2022/10/01 00:50:47;;;;;;;;;;;;;;;20.76;47.75;100172.31;5113448;27;20015;-38
2022/10/01 00:53:13;;;;;;;;;;;;;;;20.75;47.87;100167.09;5135652;27;20010;-38
2022/10/01 00:55:40;;;;;;;;;;;;;;;20.76;47.87;100166.78;5138042;27;19931;-38
2022/10/01 00:58:06;;;;;;;;;;;;;;;20.75;47.76;100156.84;5137440;27;20377;-38
2022/10/01 01:00:31;;;;;;;;;;;;;;;20.75;47.70;100148.53;5135864;27;20010;-38
2022/10/01 01:02:57;;;;;;;;;;;;;;;20.75;47.80;100139.44;5133838;27;19924;-38
2022/10/01 01:05:23;;;;;;;;;;;;;;;20.76;47.74;100146.59;5127991;27;20383;-38
2022/10/01 01:07:49;;;;;;;;;;;;;;;20.76;47.79;100152.94;5118270;27;19935;-38
2022/10/01 01:10:15;;;;;;;;;;;;;;;20.77;47.78;100151.03;5120745;27;19961;-38
2022/10/01 01:12:47;;;;;;;;;;;;;;;20.75;47.79;100137.47;5121261;27;19979;-38
2022/10/01 01:15:14;;;;;;;;;;;;;;;20.75;47.71;100126.41;5127134;27;20031;-38
2022/10/01 01:18:01;;;;;;;;;;;;;;;20.76;47.74;100121.69;5115938;27;20011;-38
2022/10/01 01:20:29;;;;;;;;;;;;;;;20.75;47.78;100107.03;5121925;27;19971;-38
2022/10/01 01:23:01;;;;;;;;;;;;;;;20.75;47.94;100097.91;5134777;27;19971;-38
2022/10/01 01:25:29;;;;;;;;;;;;;;;20.75;47.89;100087.66;5130146;27;20746;-38
2022/10/01 01:28:00;;;;;;;;;;;;;;;20.75;47.66;100079.38;5139563;27;19924;-38
2022/10/01 01:30:26;;;;;;;;;;;;;;;20.75;47.75;100064.72;5135029;27;20299;-38
2022/10/01 01:32:52;;;;;;;;;;;;;;;20.75;47.86;100062.75;5133467;27;19930;-38
2022/10/01 01:35:20;;;;;;;;;;;;;;;20.75;47.65;100054.47;5116010;27;19959;-38
2022/10/01 01:37:49;;;;;;;;;;;;;;;20.75;47.79;100045.34;5135046;27;19970;-38
2022/10/01 01:40:15;;;;;;;;;;;;;;;20.74;47.68;100027.94;5116922;27;20467;-38
2022/10/01 01:42:40;;;;;;;;;;;;;;;20.75;47.71;100020.44;5139060;27;19930;-38
2022/10/01 01:45:08;;;;;;;;;;;;;;;20.74;47.96;100000.25;5117703;27;19946;-38
2022/10/01 01:47:34;;;;;;;;;;;;;;;20.74;47.72;100008.56;5132610;27;20010;-38
2022/10/01 01:50:01;;;;;;;;;;;;;;;20.74;47.80;100014.09;5114966;27;19944;-38
2022/10/01 01:52:27;;;;;;;;;;;;;;;20.74;47.95;100022.41;5138429;27;20378;-38
2022/10/01 01:54:52;;;;;;;;;;;;;;;20.75;47.63;100023.22;5131244;27;19933;-38
2022/10/01 01:57:18;;;;;;;;;;;;;;;20.74;47.77;100036.22;5134607;27;19924;-38
2022/10/01 01:59:44;;;;;;;;;;;;;;;20.73;47.90;100034.59;5120428;27;19927;-38
2022/10/01 02:02:13;;;;;;;;;;;;;;;20.74;47.94;100039.00;5135885;27;20358;-38
2022/10/01 02:04:41;;;;;;;;;;;;;;;20.74;47.75;100039.00;5133628;27;19976;-38
2022/10/01 02:07:14;;;;;;;;;;;;;;;20.74;47.79;100039.00;5130478;27;20014;-38
2022/10/01 02:09:59;;;;;;;;;;;;;;;20.74;47.71;100044.53;5134974;27;19973;-38
2022/10/01 02:12:45;;;;;;;;;;;;;;;20.74;47.93;100043.72;5116811;27;20029;-38
2022/10/01 02:15:21;;;;;;;;;;;;;;;20.73;47.70;100047.63;5117967;27;20021;-38
2022/10/01 02:17:53;;;;;;;;;;;;;;;20.73;47.81;100045.69;5134090;27;20346;-38
2022/10/01 02:20:25;;;;;;;;;;;;;;;20.73;47.92;100045.69;5114414;27;19970;-38
2022/10/01 02:22:53;;;;;;;;;;;;;;;20.73;47.62;100050.41;5133002;27;20021;-38
2022/10/01 02:25:25;;;;;;;;;;;;;;;20.73;47.83;100051.22;5117843;27;20569;-38
2022/10/01 02:27:52;;;;;;;;;;;;;;;20.73;47.74;100039.31;5137593;27;20006;-38
2022/10/01 02:30:18;;;;;;;;;;;;;;;20.73;47.73;100048.44;5136834;27;20332;-39
2022/10/01 02:32:43;;;;;;;;;;;;;;;20.73;47.80;100040.13;5116060;27;20394;-39
2022/10/01 02:35:10;;;;;;;;;;;;;;;20.72;47.81;100029.38;5132857;27;19927;-37
2022/10/01 02:37:36;;;;;;;;;;;;;;;20.72;47.71;100032.13;5112079;28;20034;-37
2022/10/01 02:40:01;;;;;;;;;;;;;;;20.72;47.71;100021.06;5132133;27;19931;-37
2022/10/01 02:42:27;;;;;;;;;;;;;;;20.73;47.72;100017.19;5134442;27;19935;-38
2022/10/01 02:44:53;;;;;;;;;;;;;;;20.73;47.88;99984.81;5114416;27;20026;-38
2022/10/01 02:47:20;;;;;;;;;;;;;;;20.73;47.88;99978.44;5129903;27;20428;-37
2022/10/01 02:49:46;;;;;;;;;;;;;;;20.72;47.70;99991.44;5131643;27;20412;-37
2022/10/01 02:52:30;;;;;;;;;;;;;;;20.72;47.81;99993.41;5133373;27;19959;-37
2022/10/01 02:54:57;;;;;;;;;;;;;;;20.72;47.75;99990.63;5131531;27;19981;-37
2022/10/01 02:57:23;;;;;;;;;;;;;;;20.73;47.72;99993.09;5113745;27;20006;-37
2022/10/01 02:59:49;;;;;;;;;;;;;;;20.72;47.79;99988.69;5131291;27;19977;-38
2022/10/01 03:02:15;;;;;;;;;;;;;;;20.72;47.77;99955.47;5115138;27;20011;-37
2022/10/01 03:04:40;;;;;;;;;;;;;;;20.72;47.75;99943.59;5136130;27;19924;-38
2022/10/01 03:07:06;;;;;;;;;;;;;;;20.71;47.74;99945.56;5129301;27;19929;-38
2022/10/01 03:09:33;;;;;;;;;;;;;;;20.71;47.74;99948.31;5117187;27;19924;-37
2022/10/01 03:11:59;;;;;;;;;;;;;;;20.71;47.75;99953.03;5134319;27;20025;-37
2022/10/01 03:14:24;;;;;;;;;;;;;;;20.71;47.83;99948.31;5130135;27;20244;-38
2022/10/01 03:16:50;;;;;;;;;;;;;;;20.72;47.92;99957.44;5136464;27;19942;-37
2022/10/01 03:19:15;;;;;;;;;;;;;;;20.71;47.63;99948.31;5130958;27;19927;-38
2022/10/01 03:21:41;;;;;;;;;;;;;;;20.71;47.81;99940.00;5136666;27;19924;-37
2022/10/01 03:24:07;;;;;;;;;;;;;;;20.71;47.84;99922.59;5134807;27;20444;-37
2022/10/01 03:26:32;;;;;;;;;;;;;;;20.71;47.71;99917.06;5141719;27;19923;-39
2022/10/01 03:28:58;;;;;;;;;;;;;;;20.71;47.71;99895.75;5121264;27;19930;-40
2022/10/01 03:31:23;;;;;;;;;;;;;;;20.70;47.59;99910.72;5136064;27;19947;-39
2022/10/01 03:33:49;;;;;;;;;;;;;;;20.71;47.67;99900.47;5137813;27;19923;-39
2022/10/01 03:36:14;;;;;;;;;;;;;;;20.71;47.76;99897.69;5142142;27;20358;-39
2022/10/01 03:38:40;;;;;;;;;;;;;;;20.72;47.71;99891.03;5134693;27;19923;-39
2022/10/01 03:41:05;;;;;;;;;;;;;;;20.70;47.66;99874.75;5136515;27;19927;-39
2022/10/01 03:43:31;;;;;;;;;;;;;;;20.70;47.77;99882.25;5136461;27;20291;-39
2022/10/01 03:45:57;;;;;;;;;;;;;;;20.70;47.64;99877.53;5137923;27;19930;-39
2022/10/01 03:48:22;;;;;;;;;;;;;;;20.70;47.59;99873.94;5133579;27;19935;-39
2022/10/01 03:50:56;;;;;;;;;;;;;;;20.70;47.78;99855.38;5138587;27;20070;-40
2022/10/01 03:53:22;;;;;;;;;;;;;;;20.70;47.67;99869.22;5117853;27;19991;-40
2022/10/01 03:55:47;;;;;;;;;;;;;;;20.70;47.60;99871.19;5116630;27;19974;-40
2022/10/01 03:58:13;;;;;;;;;;;;;;;20.71;47.81;99872.81;5118105;27;19975;-39
2022/10/01 04:00:38;;;;;;;;;;;;;;;20.71;47.66;99872.81;5141351;27;19935;-39
2022/10/01 04:03:05;;;;;;;;;;;;;;;20.70;47.74;99885.00;5133630;27;19923;-39
2022/10/01 04:05:31;;;;;;;;;;;;;;;20.69;47.75;99875.91;5133318;27;20492;-39
2022/10/01 04:07:58;;;;;;;;;;;;;;;20.70;47.76;99857.34;5135143;27;19927;-39
2022/10/01 04:10:24;;;;;;;;;;;;;;;20.69;47.66;99881.44;5142358;27;19974;-39
2022/10/01 04:12:49;;;;;;;;;;;;;;;20.69;47.73;99886.97;5135913;27;19976;-39
2022/10/01 04:15:15;;;;;;;;;;;;;;;20.70;47.72;99887.78;5129897;27;19929;-39
2022/10/01 04:17:41;;;;;;;;;;;;;;;20.69;47.82;99902.75;5138283;27;20415;-39
2022/10/01 04:20:11;;;;;;;;;;;;;;;20.69;47.97;99900.78;5139094;27;20022;-39
2022/10/01 04:22:39;;;;;;;;;;;;;;;20.70;47.74;99873.94;5135437;27;19931;-40
2022/10/01 04:25:05;;;;;;;;;;;;;;;20.69;47.81;99864.81;5120935;27;19967;-40
2022/10/01 04:27:31;;;;;;;;;;;;;;;20.69;47.72;99877.84;5136280;27;20214;-39
2022/10/01 04:29:56;;;;;;;;;;;;;;;20.69;47.72;99897.22;5140997;27;20343;-39
2022/10/01 04:32:22;;;;;;;;;;;;;;;20.69;47.63;99898.03;5139041;27;19923;-40
2022/10/01 04:34:51;;;;;;;;;;;;;;;20.68;47.65;99893.63;5134712;27;19931;-40
2022/10/01 04:37:17;;;;;;;;;;;;;;;20.68;47.69;99888.09;5132275;27;20022;-40
2022/10/01 04:39:43;;;;;;;;;;;;;;;20.68;47.69;99890.88;5116601;27;20479;-39
2022/10/01 04:42:08;;;;;;;;;;;;;;;20.68;47.81;99885.34;5134133;27;19956;-40
2022/10/01 04:44:34;;;;;;;;;;;;;;;20.68;47.63;99890.88;5116084;27;20282;-39
2022/10/01 04:46:59;;;;;;;;;;;;;;;20.68;47.65;99871.50;5138325;27;20161;-40
2022/10/01 04:49:25;;;;;;;;;;;;;;;20.67;47.66;99867.06;5137691;27;19928;-39
2022/10/01 04:51:50;;;;;;;;;;;;;;;20.68;47.72;99870.66;5138719;27;19923;-39
2022/10/01 04:54:16;;;;;;;;;;;;;;;20.68;47.84;99867.91;5138404;27;20278;-39
2022/10/01 04:56:42;;;;;;;;;;;;;;;20.67;47.70;99863.50;5121028;27;19960;-40
2022/10/01 04:59:07;;;;;;;;;;;;;;;20.68;47.66;99860.44;5140089;27;19948;-39
2022/10/01 05:01:33;;;;;;;;;;;;;;;20.67;47.73;99858.78;5138501;27;19949;-39
2022/10/01 05:03:59;;;;;;;;;;;;;;;20.67;47.60;99858.78;5129224;27;19927;-39
2022/10/01 05:06:24;;;;;;;;;;;;;;;20.68;47.70;99865.13;5141033;27;19946;-39
2022/10/01 05:08:50;;;;;;;;;;;;;;;20.67;47.82;99863.50;5134124;27;19938;-39
2022/10/01 05:11:16;;;;;;;;;;;;;;;20.68;47.74;99859.59;5117906;27;19981;-40
2022/10/01 05:13:42;;;;;;;;;;;;;;;20.67;47.89;99856.00;5136202;27;19927;-39
2022/10/01 05:16:08;;;;;;;;;;;;;;;20.67;47.65;99860.72;5131959;27;19931;-40
2022/10/01 05:18:33;;;;;;;;;;;;;;;20.67;47.77;99864.31;5133931;27;19924;-40
2022/10/01 05:21:03;;;;;;;;;;;;;;;20.68;47.64;99867.91;5134762;27;19923;-39
2022/10/01 05:23:28;;;;;;;;;;;;;;;20.67;47.84;99864.31;5121778;27;20022;-39
2022/10/01 05:25:54;;;;;;;;;;;;;;;20.67;47.74;99864.31;5133425;27;19939;-40
2022/10/01 05:28:19;;;;;;;;;;;;;;;20.67;47.68;99864.31;5143550;27;19932;-40
2022/10/01 05:30:48;;;;;;;;;;;;;;;20.67;47.64;99871.81;5134018;27;19931;-39
2022/10/01 05:33:13;;;;;;;;;;;;;;;20.66;47.70;99856.34;5114134;28;19923;-39
2022/10/01 05:35:39;;;;;;;;;;;;;;;20.66;47.65;99864.63;5131310;27;20345;-39
2022/10/01 05:38:05;;;;;;;;;;;;;;;20.66;47.82;99865.44;5115609;27;20389;-40
2022/10/01 05:40:30;;;;;;;;;;;;;;;20.66;47.79;99865.44;5115353;27;19977;-40
2022/10/01 05:42:57;;;;;;;;;;;;;;;20.66;47.85;99870.97;5133604;27;19934;-40
2022/10/01 05:45:23;;;;;;;;;;;;;;;20.67;47.73;99869.03;5113362;27;20011;-40
2022/10/01 05:47:54;;;;;;;;;;;;;;;20.66;47.73;99865.44;5116014;27;20033;-39
2022/10/01 05:50:20;;;;;;;;;;;;;;;20.66;47.83;99870.97;5137566;27;20403;-40
2022/10/01 05:52:47;;;;;;;;;;;;;;;20.66;47.81;99870.97;5139445;27;19923;-40
2022/10/01 05:55:14;;;;;;;;;;;;;;;20.66;47.73;99884.81;5133317;27;19974;-40
2022/10/01 05:57:39;;;;;;;;;;;;;;;20.67;47.76;99880.09;5134071;27;19970;-39
2022/10/01 06:00:05;;;;;;;;;;;;;;;20.66;47.90;99879.28;5138998;27;19924;-40
2022/10/01 06:02:30;;;;;;;;;;;;;;;20.66;47.73;99889.53;5136584;27;19978;-40
2022/10/01 06:04:56;;;;;;;;;;;;;;;20.67;47.85;99893.94;5134267;27;19935;-39
2022/10/01 06:07:22;;;;;;;;;;;;;;;20.67;47.75;99891.16;5131994;27;19927;-40
2022/10/01 06:09:47;;;;;;;;;;;;;;;20.66;47.87;99893.13;5134388;27;20286;-40
2022/10/01 06:12:13;;;;;;;;;;;;;;;20.66;47.76;99895.88;5135070;27;19923;-39
2022/10/01 06:14:44;;;;;;;;;;;;;;;20.66;47.81;99898.66;5132273;27;19977;-40
2022/10/01 06:17:10;;;;;;;;;;;;;;;20.65;47.85;99897.03;5132659;27;19923;-40
2022/10/01 06:19:35;;;;;;;;;;;;;;;20.66;47.76;99906.94;5134252;27;20287;-40
2022/10/01 06:22:01;;;;;;;;;;;;;;;20.66;47.82;99911.66;5131570;27;19929;-40
2022/10/01 06:24:27;;;;;;;;;;;;;;;20.65;47.74;99919.16;5136294;27;19943;-40
2022/10/01 06:26:52;;;;;;;;;;;;;;;20.65;47.67;99916.38;5135432;27;19923;-39
2022/10/01 06:29:18;;;;;;;;;;;;;;;20.65;47.91;99915.56;5138983;27;19931;-40
2022/10/01 06:31:43;;;;;;;;;;;;;;;20.65;47.85;99916.38;5137508;27;19923;-40
2022/10/01 06:34:09;;;;;;;;;;;;;;;20.65;47.76;99919.16;5132579;27;19942;-40
2022/10/01 06:36:35;;;;;;;;;;;;;;;20.65;47.87;99910.84;5129622;27;19923;-39
2022/10/01 06:39:00;;;;;;;;;;;;;;;20.65;47.78;99919.16;5125263;27;20373;-39
2022/10/01 06:41:26;;;;;;;;;;;;;;;20.65;47.89;99912.81;5131046;27;19934;-40
2022/10/01 06:43:51;;;;;;;;;;;;;;;20.65;47.88;99912.81;5134356;27;19923;-40
2022/10/01 06:46:17;;;;;;;;;;;;;;;20.64;47.72;99909.22;5129790;27;20366;-40
2022/10/01 06:48:42;;;;;;;;;;;;;;;20.64;47.78;99912.00;5133141;27;19927;-40
2022/10/01 06:51:08;;;;;;;;;;;;;;;20.65;47.79;99910.03;5135129;27;19926;-40
2022/10/01 06:53:34;;;;;;;;;;;;;;;20.64;47.91;99920.28;5131845;27;19924;-40
2022/10/01 06:56:03;;;;;;;;;;;;;;;20.64;47.88;99914.75;5129933;27;19931;-40
2022/10/01 06:58:29;;;;;;;;;;;;;;;20.65;47.94;99921.09;5115012;27;20022;-40
2022/10/01 07:00:58;;;;;;;;;;;;;;;20.65;47.80;99913.63;5137800;27;19935;-39
2022/10/01 07:03:24;;;;;;;;;;;;;;;20.64;47.78;99914.75;5120206;27;20010;-39
2022/10/01 07:05:50;;;;;;;;;;;;;;;20.64;47.79;99923.06;5119689;27;19931;-39
2022/10/01 07:08:16;;;;;;;;;;;;;;;20.65;47.82;99923.88;5138921;27;19930;-40
2022/10/01 07:10:43;;;;;;;;;;;;;;;20.65;47.72;99923.88;5121300;27;20019;-40
2022/10/01 07:13:09;;;;;;;;;;;;;;;20.64;47.92;99924.97;5120242;27;20438;-40
2022/10/01 07:15:34;;;;;;;;;;;;;;;20.63;47.78;99935.25;5118334;27;20026;-40
2022/10/01 07:18:00;;;;;;;;;;;;;;;20.64;47.79;99936.91;5139017;27;19931;-40
2022/10/01 07:20:26;;;;;;;;;;;;;;;20.63;47.87;99929.69;5138938;27;19923;-40
2022/10/01 07:22:55;;;;;;;;;;;;;;;20.64;47.88;99938.81;5117330;27;20014;-40
2022/10/01 07:25:21;;;;;;;;;;;;;;;20.63;47.89;99938.00;5117953;27;19966;-39
2022/10/01 07:27:46;;;;;;;;;;;;;;;20.63;47.96;99949.06;5137144;27;19977;-40
2022/10/01 07:30:12;;;;;;;;;;;;;;;20.64;47.90;99960.94;5142642;27;19930;-39
2022/10/01 07:32:37;;;;;;;;;;;;;;;20.63;47.86;99960.13;5142932;27;19929;-39
2022/10/01 07:35:04;;;;;;;;;;;;;;;20.63;47.79;99960.13;5135838;27;19935;-39
2022/10/01 07:37:30;;;;;;;;;;;;;;;20.64;47.76;99960.94;5134523;27;19989;-40
2022/10/01 07:39:55;;;;;;;;;;;;;;;20.63;47.84;99971.19;5136216;27;20277;-40
2022/10/01 07:42:21;;;;;;;;;;;;;;;20.62;47.99;99972.34;5133481;27;19923;-40
2022/10/01 07:44:46;;;;;;;;;;;;;;;20.62;47.96;99975.09;5135690;27;19934;-40
2022/10/01 07:47:13;;;;;;;;;;;;;;;20.63;47.86;99992.50;5135125;27;19941;-39
2022/10/01 07:49:39;;;;;;;;;;;;;;;20.63;47.88;99985.03;5135813;27;19967;-39
2022/10/01 07:52:05;;;;;;;;;;;;;;;20.63;47.88;99987.78;5134225;27;19943;-40
2022/10/01 07:54:36;;;;;;;;;;;;;;;20.63;48.01;99990.56;5133936;27;19923;-39
2022/10/01 07:57:01;;;;;;;;;;;;;;;20.63;47.85;99987.78;5136042;27;19923;-39
2022/10/01 07:59:27;;;;;;;;;;;;;;;20.63;47.91;99992.50;5135543;27;19936;-40
2022/10/01 08:01:52;;;;;;;;;;;;;;;20.62;47.90;99988.94;5137032;27;19923;-40
2022/10/01 08:07:04;;;;;;;;;;;;;;;20.62;48.03;99985.34;5116560;27;19971;-40
2022/10/01 08:09:30;;;;;;;;;;;;;;;20.62;48.03;99988.13;5130357;27;19923;-40
2022/10/01 08:11:55;;;;;;;;;;;;;;;20.62;47.93;99991.69;5111118;27;19947;-39
2022/10/01 08:14:21;;;;;;;;;;;;;;;20.62;47.85;99994.47;5137602;27;19931;-39
2022/10/01 08:16:47;;;;;;;;;;;;;;;20.62;47.88;99991.69;5133904;27;19993;-39
2022/10/01 08:19:14;;;;;;;;;;;;;;;20.62;47.87;100001.94;5133359;27;20286;-40
2022/10/01 08:21:39;;;;;;;;;;;;;;;20.62;47.91;99994.47;5135250;27;20014;-39
2022/10/01 08:24:05;;;;;;;;;;;;;;;20.62;47.96;99999.19;5138352;27;19962;-40
2022/10/01 08:26:30;;;;;;;;;;;;;;;20.62;47.95;100007.47;5135691;27;19931;-39
2022/10/01 08:28:56;;;;;;;;;;;;;;;20.62;47.94;100005.53;5116128;27;20013;-40
2022/10/01 08:31:22;;;;;;;;;;;;;;;20.61;47.96;100012.19;5134686;27;19923;-40
2022/10/01 08:33:47;;;;;;;;;;;;;;;20.62;47.93;100019.38;5117957;27;20009;-39
2022/10/01 08:36:13;;;;;;;;;;;;;;;20.63;48.08;100028.47;5137449;27;19938;-40
2022/10/01 08:38:39;;;;;;;;;;;;;;;20.62;47.91;100027.66;5131563;27;19923;-40
2022/10/01 08:41:07;;;;;;;;;;;;;;;20.61;47.94;100034.34;5133993;27;19951;-40
2022/10/01 08:43:35;;;;;;;;;;;;;;;20.61;47.89;100031.56;5134613;27;20407;-41
2022/10/01 08:46:02;;;;;;;;;;;;;;;20.62;48.08;100038.72;5129687;27;19938;-41
2022/10/01 08:48:30;;;;;;;;;;;;;;;20.62;48.06;100040.69;5099955;27;19927;-41
2022/10/01 08:50:58;;;;;;;;;;;;;;;20.61;47.97;100042.63;5114058;27;19939;-40
2022/10/01 08:53:41;;;;;;;;;;;;;;;20.61;47.97;100037.09;5139550;27;19932;-41
2022/10/01 08:56:13;;;;;;;;;;;;;;;20.61;47.99;100037.09;5114638;27;19927;-41
2022/10/01 08:58:41;;;;;;;;;;;;;;;20.62;48.10;100035.97;5136980;27;19923;-40
2022/10/01 09:01:08;;;;;;;;;;;;;;;20.62;47.98;100043.44;5132971;27;19959;-40
2022/10/01 09:03:34;;;;;;;;;;;;;;;20.61;47.84;100039.88;5132446;27;19931;-40
2022/10/01 09:06:03;;;;;;;;;;;;;;;20.62;48.02;100048.97;5130684;27;19946;-39
2022/10/01 09:08:42;;;;;;;;;;;;;;;20.61;47.97;100042.63;5117452;27;20409;-39
2022/10/01 09:11:16;;;;;;;;;;;;;;;20.62;48.04;100048.97;5132717;27;20568;-38
2022/10/01 09:13:53;;;;;;;;;;;;;;;20.61;48.03;100055.66;5136574;27;20185;-39
2022/10/01 09:16:38;;;;;;;;;;;;;;;20.60;48.14;100062.31;5128209;27;19962;-40
2022/10/01 09:19:24;;;;;;;;;;;;;;;20.61;47.91;100066.72;5118392;27;19935;-40
2022/10/01 09:22:09;;;;;;;;;;;;;;;20.60;48.05;100068.66;5115201;27;20010;-39
2022/10/01 09:24:40;;;;;;;;;;;;;;;20.61;47.92;100066.72;5122532;27;19973;-40
2022/10/01 09:27:22;;;;;;;;;;;;;;;20.61;47.98;100056.47;5136033;27;19974;-39
2022/10/01 09:29:48;;;;;;;;;;;;;;;20.59;48.13;100067.00;5141389;27;20014;-40
2022/10/01 09:32:15;;;;;;;;;;;;;;;20.61;48.03;100073.06;5120481;27;20264;-39
2022/10/01 09:34:41;;;;;;;;;;;;;;;20.59;48.05;100075.31;5134636;27;20021;-40
2022/10/01 09:37:13;;;;;;;;;;;;;;;20.60;47.99;100079.72;5133800;27;19930;-40
2022/10/01 09:39:58;;;;;;;;;;;;;;;20.61;48.22;100083.31;5134900;27;20027;-40
2022/10/01 09:42:25;;;;;;;;;;;;;;;20.60;47.96;100078.91;5122222;27;20022;-40
2022/10/01 09:44:52;;;;;;;;;;;;;;;20.60;48.10;100076.97;5114658;27;20072;-39
2022/10/01 09:47:19;;;;;;;;;;;;;;;20.60;48.12;100076.16;5130639;27;20442;-39
2022/10/01 09:49:45;;;;;;;;;;;;;;;20.60;48.12;100076.97;5119218;27;20418;-39
2022/10/01 09:52:17;;;;;;;;;;;;;;;20.60;48.17;100076.97;5139336;27;19931;-40
2022/10/01 09:54:46;;;;;;;;;;;;;;;20.60;48.06;100076.16;5139213;27;19967;-40
2022/10/01 09:57:12;;;;;;;;;;;;;;;20.60;48.22;100084.44;5116146;27;19955;-40
2022/10/01 09:59:42;;;;;;;;;;;;;;;20.60;48.07;100089.97;5133345;27;20055;-40
2022/10/01 10:02:13;;;;;;;;;;;;;;;20.60;48.05;100084.44;5134012;27;19963;-40
2022/10/01 10:04:40;;;;;;;;;;;;;;;20.60;48.06;100084.44;5136440;27;20062;-40
2022/10/01 10:07:06;;;;;;;;;;;;;;;20.60;48.22;100084.44;5137504;27;20066;-40
2022/10/01 10:09:32;;;;;;;;;;;;;;;20.60;48.01;100099.09;5136286;27;19932;-40
2022/10/01 10:11:58;;;;;;;;;;;;;;;20.59;48.12;100097.44;5115980;27;20374;-39
2022/10/01 10:14:31;;;;;;;;;;;;;;;20.60;48.06;100106.59;5118254;27;19931;-40
2022/10/01 10:16:57;;;;;;;;;;;;;;;20.60;48.18;100106.59;5116518;27;20030;-40
2022/10/01 10:19:25;;;;;;;;;;;;;;;20.59;48.44;100111.25;5139092;27;19931;-39
2022/10/01 10:21:52;;;;;;;;;;;;;;;20.60;48.23;100114.88;5135668;27;19934;-39
2022/10/01 10:24:21;;;;;;;;;;;;;;;20.59;48.09;100119.56;5115727;27;19931;-40
2022/10/01 10:26:50;;;;;;;;;;;;;;;20.60;48.07;100112.13;5118040;27;19995;-40
2022/10/01 10:29:32;;;;;;;;;;;;;;;20.59;48.26;100119.56;5142115;27;20447;-40
2022/10/01 10:31:58;;;;;;;;;;;;;;;20.60;48.06;100120.41;5128341;27;19958;-40
2022/10/01 10:34:32;;;;;;;;;;;;;;;20.59;48.10;100125.09;5138050;27;20404;-39
2022/10/01 10:36:58;;;;;;;;;;;;;;;20.59;48.19;100132.59;5140963;27;20023;-39
2022/10/01 10:39:25;;;;;;;;;;;;;;;20.59;48.21;100130.63;5136858;27;19927;-40
2022/10/01 10:41:50;;;;;;;;;;;;;;;20.60;48.26;100137.00;5133797;27;19962;-39
2022/10/01 10:44:20;;;;;;;;;;;;;;;20.60;48.15;100145.31;5139733;27;19931;-40
2022/10/01 10:46:45;;;;;;;;;;;;;;;20.59;48.39;100147.22;5120658;27;20064;-40
2022/10/01 10:49:15;;;;;;;;;;;;;;;20.59;48.18;100150.00;5136890;27;19976;-40
2022/10/01 10:51:42;;;;;;;;;;;;;;;20.59;48.29;100144.47;5136356;27;20370;-40
2022/10/01 10:54:16;;;;;;;;;;;;;;;20.59;48.24;100147.22;5119540;27;19962;-39
2022/10/01 10:56:43;;;;;;;;;;;;;;;20.60;48.35;100151.66;5118604;27;20013;-40
2022/10/01 10:59:08;;;;;;;;;;;;;;;20.59;48.23;100151.94;5135090;27;19959;-40
2022/10/01 11:01:34;;;;;;;;;;;;;;;20.60;48.24;100161.91;5134843;27;20315;-39
2022/10/01 11:04:00;;;;;;;;;;;;;;;20.60;48.29;100161.91;5138855;27;20615;-39
2022/10/01 11:06:25;;;;;;;;;;;;;;;20.59;48.23;100168.53;5135744;27;19930;-39
2022/10/01 11:08:59;;;;;;;;;;;;;;;20.58;48.34;100162.19;5134487;27;19962;-40
2022/10/01 11:14:22;;;;;;;;;;;;;;;20.59;48.19;100166.59;5175245;27;20399;-37
2022/10/01 11:17:09;;;;;;;;;;;;;;;20.58;48.21;100156.66;5169117;27;19923;-37
2022/10/01 11:19:37;;;;;;;;;;;;;;;20.59;48.36;100163.81;5157939;27;19981;-37
2022/10/01 11:22:09;;;;;;;;;;;;;;;20.59;48.19;100163.00;5178466;27;20324;-39
2022/10/01 11:24:54;;;;;;;;;;;;;;;20.59;48.27;100161.06;5173548;27;20014;-40
2022/10/01 11:27:39;;;;;;;;;;;;;;;20.59;48.26;100161.06;5164257;27;19973;-40
2022/10/01 11:30:08;;;;;;;;;;;;;;;20.58;48.25;100156.66;5158013;27;20034;-40
2022/10/01 11:32:53;;;;;;;;;;;;;;;20.59;48.36;100163.81;5175355;27;19969;-39
2022/10/01 11:35:25;;;;;;;;;;;;;;;20.58;48.34;100166.91;5159120;27;19962;-39
2022/10/01 11:38:01;;;;;;;;;;;;;;;20.59;48.17;100172.13;5170294;27;20022;-39
2022/10/01 11:40:27;;;;;;;;;;;;;;;20.59;48.44;100174.06;5168926;27;19966;-39
2022/10/01 11:42:55;;;;;;;;;;;;;;;20.59;48.35;100174.06;5175748;27;20435;-40
2022/10/01 11:45:22;;;;;;;;;;;;;;;20.59;48.33;100176.84;5168543;27;20067;-39
2022/10/01 11:47:50;;;;;;;;;;;;;;;20.59;48.47;100174.06;5168490;27;19962;-39
2022/10/01 11:50:17;;;;;;;;;;;;;;;20.59;48.33;100185.16;5167180;27;19991;-40
2022/10/01 11:52:59;;;;;;;;;;;;;;;20.60;48.34;100181.28;5168729;27;20475;-40
2022/10/01 11:59:02;;;;;;;;;;;;;;;20.59;48.48;100187.91;5145601;27;19971;-40
2022/10/01 12:01:36;;;;;;;;;;;;;;;20.58;48.41;100192.63;5128147;27;19923;-39
2022/10/01 12:04:22;;;;;;;;;;;;;;;20.59;48.44;100201.75;5138269;27;20500;-39
2022/10/01 12:06:53;;;;;;;;;;;;;;;20.58;48.46;100197.34;5131445;27;19962;-39
2022/10/01 12:09:21;;;;;;;;;;;;;;;20.58;48.30;100198.16;5127108;27;20149;-39
2022/10/01 12:11:51;;;;;;;;;;;;;;;20.58;48.32;100200.94;5151992;27;19996;-40
2022/10/01 12:14:21;;;;;;;;;;;;;;;20.58;48.43;100198.16;5130389;27;20439;-40
2022/10/01 12:16:49;;;;;;;;;;;;;;;20.58;48.49;100195.41;5150040;27;19967;-39
2022/10/01 12:19:34;;;;;;;;;;;;;;;20.58;48.36;100198.16;5130920;27;20409;-40
2022/10/01 12:22:20;;;;;;;;;;;;;;;20.59;48.59;100210.03;5134270;27;20018;-39
2022/10/01 12:24:50;;;;;;;;;;;;;;;20.59;48.43;100215.56;5131230;27;19932;-39
2022/10/01 12:30:01;;;;;;;;;;;;;;;20.59;48.54;100212.81;5178295;27;19925;-38
2022/10/01 12:32:33;;;;;;;;;;;;;;;20.59;48.32;100210.03;5158797;27;19923;-39
2022/10/01 12:35:18;;;;;;;;;;;;;;;20.59;48.53;100215.56;5164838;27;19974;-39
2022/10/01 12:38:04;;;;;;;;;;;;;;;20.58;48.43;100217.53;5151891;27;19985;-39
2022/10/01 12:40:47;;;;;;;;;;;;;;;20.59;48.52;100221.09;5144478;27;20095;-39
2022/10/01 12:43:26;;;;;;;;;;;;;;;20.58;48.50;100234.13;5160186;27;20377;-39
2022/10/01 12:45:56;;;;;;;;;;;;;;;20.58;48.49;100231.34;5160352;27;20021;-39
2022/10/01 12:48:43;;;;;;;;;;;;;;;20.58;48.43;100236.88;5157530;27;19922;-40
2022/10/01 12:51:29;;;;;;;;;;;;;;;20.58;48.58;100230.53;5140887;27;19970;-39
2022/10/01 12:54:14;;;;;;;;;;;;;;;20.58;48.48;100242.41;5146531;27;20064;-40
2022/10/01 12:56:42;;;;;;;;;;;;;;;20.59;48.50;100241.28;5135404;27;19970;-40
2022/10/01 12:59:28;;;;;;;;;;;;;;;20.58;48.50;100239.66;5141513;27;20030;-39